sensor_id;sensor_type;location;lat;lon;timestamp;P1;durP1;ratioP1;P2;durP2;ratioP2
18818;SDS011;9537;45.594;9.294;2022-11-20T00:00:40;13.97;;;8.73;;
18818;SDS011;9537;45.594;9.294;2022-11-20T00:01:41;11.83;;;8.73;;
18818;SDS011;9537;45.594;9.294;2022-11-20T00:02:43;13.70;;;9.00;;
18818;SDS011;9537;45.594;9.294;2022-11-20T00:03:44;14.10;;;9.03;;
18818;SDS011;9537;45.594;9.294;2022-11-20T00:04:47;13.30;;;9.27;;
18818;SDS011;9537;45.594;9.294;2022-11-20T00:05:48;12.70;;;8.57;;
18818;SDS011;9537;45.594;9.294;2022-11-20T00:06:50;13.60;;;8.77;;
18818;SDS011;9537;45.594;9.294;2022-11-20T00:07:52;14.90;;;9.27;;
18818;SDS011;9537;45.594;9.294;2022-11-20T00:08:54;15.70;;;9.47;;
18818;SDS011;9537;45.594;9.294;2022-11-20T00:09:57;14.60;;;9.23;;
18818;SDS011;9537;45.594;9.294;2022-11-20T00:11:02;14.43;;;8.90;;
18818;SDS011;9537;45.594;9.294;2022-11-20T00:12:05;12.87;;;9.17;;
18818;SDS011;9537;45.594;9.294;2022-11-20T00:13:06;17.97;;;10.07;;
18818;SDS011;9537;45.594;9.294;2022-11-20T00:14:09;15.87;;;10.30;;
18818;SDS011;9537;45.594;9.294;2022-11-20T00:15:10;14.77;;;10.03;;
18818;SDS011;9537;45.594;9.294;2022-11-20T00:16:13;14.53;;;9.50;;
18818;SDS011;9537;45.594;9.294;2022-11-20T00:17:16;11.27;;;8.53;;
18818;SDS011;9537;45.594;9.294;2022-11-20T00:18:18;13.03;;;8.87;;
18818;SDS011;9537;45.594;9.294;2022-11-20T00:19:19;13.37;;;8.67;;
18818;SDS011;9537;45.594;9.294;2022-11-20T00:20:21;12.60;;;8.53;;
18818;SDS011;9537;45.594;9.294;2022-11-20T00:21:23;10.83;;;7.77;;
18818;SDS011;9537;45.594;9.294;2022-11-20T00:22:26;10.63;;;7.33;;
18818;SDS011;9537;45.594;9.294;2022-11-20T00:23:29;11.60;;;7.90;;
18818;SDS011;9537;45.594;9.294;2022-11-20T00:24:30;11.10;;;8.13;;
18818;SDS011;9537;45.594;9.294;2022-11-20T00:25:33;11.30;;;7.63;;
18818;SDS011;9537;45.594;9.294;2022-11-20T00:26:34;13.47;;;8.00;;
18818;SDS011;9537;45.594;9.294;2022-11-20T00:27:36;11.37;;;8.57;;
18818;SDS011;9537;45.594;9.294;2022-11-20T00:28:37;17.03;;;9.77;;
18818;SDS011;9537;45.594;9.294;2022-11-20T00:29:40;11.67;;;8.17;;
18818;SDS011;9537;45.594;9.294;2022-11-20T00:30:41;13.57;;;9.13;;
18818;SDS011;9537;45.594;9.294;2022-11-20T00:31:43;13.30;;;8.60;;
18818;SDS011;9537;45.594;9.294;2022-11-20T00:32:44;13.83;;;9.37;;
18818;SDS011;9537;45.594;9.294;2022-11-20T00:33:46;14.33;;;8.73;;
18818;SDS011;9537;45.594;9.294;2022-11-20T00:34:47;14.63;;;8.53;;
18818;SDS011;9537;45.594;9.294;2022-11-20T00:35:49;14.43;;;9.00;;
18818;SDS011;9537;45.594;9.294;2022-11-20T00:36:50;13.23;;;9.57;;
18818;SDS011;9537;45.594;9.294;2022-11-20T00:37:52;14.87;;;9.10;;
18818;SDS011;9537;45.594;9.294;2022-11-20T00:38:55;15.40;;;9.37;;
18818;SDS011;9537;45.594;9.294;2022-11-20T00:39:58;16.97;;;9.40;;
18818;SDS011;9537;45.594;9.294;2022-11-20T00:40:59;12.60;;;9.03;;
18818;SDS011;9537;45.594;9.294;2022-11-20T00:42:03;12.53;;;9.10;;
18818;SDS011;9537;45.594;9.294;2022-11-20T00:43:04;15.57;;;8.90;;
18818;SDS011;9537;45.594;9.294;2022-11-20T00:44:06;13.23;;;9.20;;
18818;SDS011;9537;45.594;9.294;2022-11-20T00:45:07;14.57;;;9.47;;
18818;SDS011;9537;45.594;9.294;2022-11-20T00:46:10;15.20;;;9.50;;
18818;SDS011;9537;45.594;9.294;2022-11-20T00:47:14;13.30;;;8.40;;
18818;SDS011;9537;45.594;9.294;2022-11-20T00:48:16;12.57;;;8.13;;
18818;SDS011;9537;45.594;9.294;2022-11-20T00:49:17;15.47;;;9.00;;
18818;SDS011;9537;45.594;9.294;2022-11-20T00:50:19;12.63;;;8.90;;
18818;SDS011;9537;45.594;9.294;2022-11-20T00:51:20;11.47;;;7.87;;
18818;SDS011;9537;45.594;9.294;2022-11-20T00:52:24;13.03;;;8.93;;
18818;SDS011;9537;45.594;9.294;2022-11-20T00:53:25;12.37;;;9.40;;
18818;SDS011;9537;45.594;9.294;2022-11-20T00:54:28;16.50;;;9.17;;
18818;SDS011;9537;45.594;9.294;2022-11-20T00:55:30;12.47;;;8.50;;
18818;SDS011;9537;45.594;9.294;2022-11-20T00:56:31;13.20;;;8.67;;
18818;SDS011;9537;45.594;9.294;2022-11-20T00:57:33;16.23;;;9.30;;
18818;SDS011;9537;45.594;9.294;2022-11-20T00:58:35;15.60;;;9.17;;
18818;SDS011;9537;45.594;9.294;2022-11-20T00:59:38;12.27;;;8.70;;
18818;SDS011;9537;45.594;9.294;2022-11-20T01:00:40;15.47;;;8.93;;
18818;SDS011;9537;45.594;9.294;2022-11-20T01:01:41;14.73;;;9.50;;
18818;SDS011;9537;45.594;9.294;2022-11-20T01:02:44;13.10;;;8.70;;
18818;SDS011;9537;45.594;9.294;2022-11-20T01:03:45;12.23;;;8.80;;
18818;SDS011;9537;45.594;9.294;2022-11-20T01:04:48;13.00;;;8.50;;
18818;SDS011;9537;45.594;9.294;2022-11-20T01:05:49;13.27;;;8.93;;
18818;SDS011;9537;45.594;9.294;2022-11-20T01:06:52;13.33;;;9.03;;
18818;SDS011;9537;45.594;9.294;2022-11-20T01:07:53;13.40;;;9.20;;
18818;SDS011;9537;45.594;9.294;2022-11-20T01:08:56;12.53;;;8.90;;
18818;SDS011;9537;45.594;9.294;2022-11-20T01:09:59;14.17;;;9.27;;
18818;SDS011;9537;45.594;9.294;2022-11-20T01:11:02;12.20;;;8.57;;
18818;SDS011;9537;45.594;9.294;2022-11-20T01:12:04;13.40;;;8.63;;
18818;SDS011;9537;45.594;9.294;2022-11-20T01:13:06;16.87;;;9.77;;
18818;SDS011;9537;45.594;9.294;2022-11-20T01:14:37;14.27;;;9.47;;
18818;SDS011;9537;45.594;9.294;2022-11-20T01:15:40;14.17;;;8.23;;
18818;SDS011;9537;45.594;9.294;2022-11-20T01:16:41;14.67;;;9.03;;
18818;SDS011;9537;45.594;9.294;2022-11-20T01:17:45;11.17;;;8.03;;
18818;SDS011;9537;45.594;9.294;2022-11-20T01:18:47;12.27;;;8.30;;
18818;SDS011;9537;45.594;9.294;2022-11-20T01:19:51;11.90;;;7.90;;
18818;SDS011;9537;45.594;9.294;2022-11-20T01:20:52;13.50;;;8.97;;
18818;SDS011;9537;45.594;9.294;2022-11-20T01:21:54;16.03;;;9.03;;
18818;SDS011;9537;45.594;9.294;2022-11-20T01:22:55;14.20;;;9.10;;
18818;SDS011;9537;45.594;9.294;2022-11-20T01:23:57;13.97;;;8.37;;
18818;SDS011;9537;45.594;9.294;2022-11-20T01:25:00;11.57;;;8.23;;
18818;SDS011;9537;45.594;9.294;2022-11-20T01:26:02;11.83;;;8.70;;
18818;SDS011;9537;45.594;9.294;2022-11-20T01:27:04;11.77;;;8.87;;
18818;SDS011;9537;45.594;9.294;2022-11-20T01:28:06;18.10;;;9.50;;
18818;SDS011;9537;45.594;9.294;2022-11-20T01:29:08;12.63;;;8.97;;
18818;SDS011;9537;45.594;9.294;2022-11-20T01:30:14;12.27;;;8.73;;
18818;SDS011;9537;45.594;9.294;2022-11-20T01:31:15;12.80;;;9.07;;
18818;SDS011;9537;45.594;9.294;2022-11-20T01:32:19;14.63;;;8.53;;
18818;SDS011;9537;45.594;9.294;2022-11-20T01:33:20;15.53;;;8.93;;
18818;SDS011;9537;45.594;9.294;2022-11-20T01:34:22;14.23;;;9.00;;
18818;SDS011;9537;45.594;9.294;2022-11-20T01:35:23;12.87;;;9.60;;
18818;SDS011;9537;45.594;9.294;2022-11-20T01:36:26;15.00;;;9.53;;
18818;SDS011;9537;45.594;9.294;2022-11-20T01:37:30;13.17;;;8.93;;
18818;SDS011;9537;45.594;9.294;2022-11-20T01:38:32;13.33;;;8.53;;
18818;SDS011;9537;45.594;9.294;2022-11-20T01:39:32;14.63;;;9.13;;
18818;SDS011;9537;45.594;9.294;2022-11-20T01:40:36;15.90;;;9.33;;
18818;SDS011;9537;45.594;9.294;2022-11-20T01:41:37;12.80;;;9.77;;
18818;SDS011;9537;45.594;9.294;2022-11-20T01:43:00;13.60;;;8.97;;
18818;SDS011;9537;45.594;9.294;2022-11-20T01:45:52;14.93;;;9.23;;
18818;SDS011;9537;45.594;9.294;2022-11-20T01:47:07;13.63;;;8.53;;
18818;SDS011;9537;45.594;9.294;2022-11-20T01:48:14;13.63;;;9.10;;
18818;SDS011;9537;45.594;9.294;2022-11-20T01:49:18;13.57;;;9.27;;
18818;SDS011;9537;45.594;9.294;2022-11-20T01:50:22;14.27;;;9.17;;
18818;SDS011;9537;45.594;9.294;2022-11-20T01:51:29;13.77;;;8.77;;
18818;SDS011;9537;45.594;9.294;2022-11-20T01:52:34;14.43;;;8.67;;
18818;SDS011;9537;45.594;9.294;2022-11-20T01:53:41;13.93;;;9.87;;
18818;SDS011;9537;45.594;9.294;2022-11-20T01:54:43;16.00;;;9.80;;
18818;SDS011;9537;45.594;9.294;2022-11-20T01:55:50;15.57;;;9.37;;
18818;SDS011;9537;45.594;9.294;2022-11-20T01:56:54;13.33;;;8.37;;
18818;SDS011;9537;45.594;9.294;2022-11-20T01:58:01;15.60;;;10.00;;
18818;SDS011;9537;45.594;9.294;2022-11-20T01:59:03;13.03;;;9.33;;
18818;SDS011;9537;45.594;9.294;2022-11-20T02:00:10;14.73;;;9.53;;
18818;SDS011;9537;45.594;9.294;2022-11-20T02:01:13;17.00;;;10.43;;
18818;SDS011;9537;45.594;9.294;2022-11-20T02:02:15;15.30;;;10.07;;
18818;SDS011;9537;45.594;9.294;2022-11-20T02:03:17;15.60;;;9.77;;
18818;SDS011;9537;45.594;9.294;2022-11-20T02:04:21;12.90;;;9.50;;
18818;SDS011;9537;45.594;9.294;2022-11-20T02:05:23;14.23;;;9.80;;
18818;SDS011;9537;45.594;9.294;2022-11-20T02:06:32;15.17;;;9.60;;
18818;SDS011;9537;45.594;9.294;2022-11-20T02:07:40;15.67;;;9.73;;
18818;SDS011;9537;45.594;9.294;2022-11-20T02:08:41;13.50;;;9.67;;
18818;SDS011;9537;45.594;9.294;2022-11-20T02:09:43;15.60;;;9.60;;
18818;SDS011;9537;45.594;9.294;2022-11-20T02:10:44;16.53;;;10.50;;
18818;SDS011;9537;45.594;9.294;2022-11-20T02:11:48;17.43;;;10.53;;
18818;SDS011;9537;45.594;9.294;2022-11-20T02:12:49;14.77;;;9.77;;
18818;SDS011;9537;45.594;9.294;2022-11-20T02:14:09;17.63;;;9.80;;
18818;SDS011;9537;45.594;9.294;2022-11-20T02:15:12;14.03;;;9.27;;
18818;SDS011;9537;45.594;9.294;2022-11-20T02:16:18;15.63;;;9.57;;
18818;SDS011;9537;45.594;9.294;2022-11-20T02:17:22;13.47;;;9.13;;
18818;SDS011;9537;45.594;9.294;2022-11-20T02:18:24;15.47;;;9.77;;
18818;SDS011;9537;45.594;9.294;2022-11-20T02:19:27;13.03;;;9.63;;
18818;SDS011;9537;45.594;9.294;2022-11-20T02:20:31;15.47;;;10.37;;
18818;SDS011;9537;45.594;9.294;2022-11-20T02:21:34;14.93;;;10.13;;
18818;SDS011;9537;45.594;9.294;2022-11-20T02:22:41;15.30;;;10.30;;
18818;SDS011;9537;45.594;9.294;2022-11-20T02:24:01;13.80;;;9.07;;
18818;SDS011;9537;45.594;9.294;2022-11-20T02:25:03;14.07;;;9.10;;
18818;SDS011;9537;45.594;9.294;2022-11-20T02:26:09;12.77;;;8.53;;
18818;SDS011;9537;45.594;9.294;2022-11-20T02:27:14;16.13;;;9.03;;
18818;SDS011;9537;45.594;9.294;2022-11-20T02:28:17;12.50;;;8.97;;
18818;SDS011;9537;45.594;9.294;2022-11-20T02:29:19;13.97;;;8.70;;
18818;SDS011;9537;45.594;9.294;2022-11-20T02:30:27;13.03;;;8.47;;
18818;SDS011;9537;45.594;9.294;2022-11-20T02:31:28;17.00;;;9.50;;
18818;SDS011;9537;45.594;9.294;2022-11-20T02:32:31;13.47;;;9.53;;
18818;SDS011;9537;45.594;9.294;2022-11-20T02:33:34;13.80;;;8.97;;
18818;SDS011;9537;45.594;9.294;2022-11-20T02:34:36;14.33;;;9.37;;
18818;SDS011;9537;45.594;9.294;2022-11-20T02:35:41;15.20;;;9.07;;
18818;SDS011;9537;45.594;9.294;2022-11-20T02:36:44;15.37;;;9.23;;
18818;SDS011;9537;45.594;9.294;2022-11-20T02:37:48;13.73;;;9.40;;
18818;SDS011;9537;45.594;9.294;2022-11-20T02:38:52;12.40;;;9.23;;
18818;SDS011;9537;45.594;9.294;2022-11-20T02:39:56;12.77;;;9.40;;
18818;SDS011;9537;45.594;9.294;2022-11-20T02:40:57;13.00;;;9.53;;
18818;SDS011;9537;45.594;9.294;2022-11-20T02:42:00;14.93;;;9.40;;
18818;SDS011;9537;45.594;9.294;2022-11-20T02:43:02;13.67;;;8.97;;
18818;SDS011;9537;45.594;9.294;2022-11-20T02:44:04;13.67;;;9.23;;
18818;SDS011;9537;45.594;9.294;2022-11-20T02:45:06;12.47;;;8.53;;
18818;SDS011;9537;45.594;9.294;2022-11-20T02:46:09;13.50;;;9.03;;
18818;SDS011;9537;45.594;9.294;2022-11-20T02:47:10;15.37;;;8.93;;
18818;SDS011;9537;45.594;9.294;2022-11-20T02:48:12;15.80;;;9.13;;
18818;SDS011;9537;45.594;9.294;2022-11-20T02:49:13;13.80;;;8.50;;
18818;SDS011;9537;45.594;9.294;2022-11-20T02:50:17;12.23;;;8.63;;
18818;SDS011;9537;45.594;9.294;2022-11-20T02:51:18;11.63;;;9.00;;
18818;SDS011;9537;45.594;9.294;2022-11-20T02:52:20;13.47;;;9.10;;
18818;SDS011;9537;45.594;9.294;2022-11-20T02:53:21;14.80;;;8.40;;
18818;SDS011;9537;45.594;9.294;2022-11-20T02:54:23;13.90;;;8.70;;
18818;SDS011;9537;45.594;9.294;2022-11-20T02:55:25;14.47;;;9.17;;
18818;SDS011;9537;45.594;9.294;2022-11-20T02:56:27;13.27;;;8.67;;
18818;SDS011;9537;45.594;9.294;2022-11-20T02:57:28;13.03;;;8.37;;
18818;SDS011;9537;45.594;9.294;2022-11-20T02:58:30;12.13;;;8.20;;
18818;SDS011;9537;45.594;9.294;2022-11-20T02:59:31;14.33;;;9.23;;
18818;SDS011;9537;45.594;9.294;2022-11-20T03:00:33;13.17;;;8.70;;
18818;SDS011;9537;45.594;9.294;2022-11-20T03:01:35;13.43;;;8.93;;
18818;SDS011;9537;45.594;9.294;2022-11-20T03:02:38;12.53;;;8.67;;
18818;SDS011;9537;45.594;9.294;2022-11-20T03:03:39;13.83;;;8.90;;
18818;SDS011;9537;45.594;9.294;2022-11-20T03:04:41;11.53;;;8.57;;
18818;SDS011;9537;45.594;9.294;2022-11-20T03:05:43;14.20;;;9.40;;
18818;SDS011;9537;45.594;9.294;2022-11-20T03:06:45;13.97;;;8.50;;
18818;SDS011;9537;45.594;9.294;2022-11-20T03:07:46;14.30;;;9.10;;
18818;SDS011;9537;45.594;9.294;2022-11-20T03:08:48;11.33;;;8.13;;
18818;SDS011;9537;45.594;9.294;2022-11-20T03:09:50;13.00;;;9.03;;
18818;SDS011;9537;45.594;9.294;2022-11-20T03:10:52;13.30;;;9.10;;
18818;SDS011;9537;45.594;9.294;2022-11-20T03:11:54;15.13;;;8.67;;
18818;SDS011;9537;45.594;9.294;2022-11-20T03:12:56;13.63;;;9.03;;
18818;SDS011;9537;45.594;9.294;2022-11-20T03:13:58;11.80;;;8.10;;
18818;SDS011;9537;45.594;9.294;2022-11-20T03:15:02;11.30;;;8.13;;
18818;SDS011;9537;45.594;9.294;2022-11-20T03:16:08;12.50;;;8.27;;
18818;SDS011;9537;45.594;9.294;2022-11-20T03:17:11;11.37;;;7.83;;
18818;SDS011;9537;45.594;9.294;2022-11-20T03:18:13;12.00;;;8.07;;
18818;SDS011;9537;45.594;9.294;2022-11-20T03:19:15;11.43;;;8.37;;
18818;SDS011;9537;45.594;9.294;2022-11-20T03:20:17;14.97;;;8.20;;
18818;SDS011;9537;45.594;9.294;2022-11-20T03:21:17;15.90;;;8.37;;
18818;SDS011;9537;45.594;9.294;2022-11-20T03:22:19;11.10;;;8.40;;
18818;SDS011;9537;45.594;9.294;2022-11-20T03:23:20;11.67;;;7.43;;
18818;SDS011;9537;45.594;9.294;2022-11-20T03:24:22;11.33;;;8.17;;
18818;SDS011;9537;45.594;9.294;2022-11-20T03:25:23;11.03;;;7.77;;
18818;SDS011;9537;45.594;9.294;2022-11-20T03:26:27;11.27;;;8.63;;
18818;SDS011;9537;45.594;9.294;2022-11-20T03:27:31;11.30;;;8.37;;
18818;SDS011;9537;45.594;9.294;2022-11-20T03:28:34;16.50;;;8.73;;
18818;SDS011;9537;45.594;9.294;2022-11-20T03:29:35;13.70;;;7.83;;
18818;SDS011;9537;45.594;9.294;2022-11-20T03:30:37;12.37;;;9.00;;
18818;SDS011;9537;45.594;9.294;2022-11-20T03:31:39;13.93;;;8.53;;
18818;SDS011;9537;45.594;9.294;2022-11-20T03:32:41;12.57;;;8.10;;
18818;SDS011;9537;45.594;9.294;2022-11-20T03:33:42;10.93;;;8.13;;
18818;SDS011;9537;45.594;9.294;2022-11-20T03:34:45;13.10;;;8.27;;
18818;SDS011;9537;45.594;9.294;2022-11-20T03:35:46;11.23;;;8.17;;
18818;SDS011;9537;45.594;9.294;2022-11-20T03:36:48;11.03;;;8.03;;
18818;SDS011;9537;45.594;9.294;2022-11-20T03:37:49;10.33;;;7.97;;
18818;SDS011;9537;45.594;9.294;2022-11-20T03:38:52;12.20;;;8.13;;
18818;SDS011;9537;45.594;9.294;2022-11-20T03:39:54;10.43;;;8.33;;
18818;SDS011;9537;45.594;9.294;2022-11-20T03:40:57;15.30;;;8.63;;
18818;SDS011;9537;45.594;9.294;2022-11-20T03:42:01;14.17;;;9.03;;
18818;SDS011;9537;45.594;9.294;2022-11-20T03:43:23;10.87;;;7.90;;
18818;SDS011;9537;45.594;9.294;2022-11-20T03:44:24;11.67;;;8.20;;
18818;SDS011;9537;45.594;9.294;2022-11-20T03:45:26;11.87;;;8.07;;
18818;SDS011;9537;45.594;9.294;2022-11-20T03:46:27;12.33;;;8.03;;
18818;SDS011;9537;45.594;9.294;2022-11-20T03:47:29;11.57;;;8.00;;
18818;SDS011;9537;45.594;9.294;2022-11-20T03:48:30;12.40;;;8.87;;
18818;SDS011;9537;45.594;9.294;2022-11-20T03:49:33;10.37;;;7.90;;
18818;SDS011;9537;45.594;9.294;2022-11-20T03:50:34;12.40;;;7.37;;
18818;SDS011;9537;45.594;9.294;2022-11-20T03:51:36;11.50;;;7.57;;
18818;SDS011;9537;45.594;9.294;2022-11-20T03:52:37;10.97;;;7.93;;
18818;SDS011;9537;45.594;9.294;2022-11-20T03:53:39;12.70;;;7.93;;
18818;SDS011;9537;45.594;9.294;2022-11-20T03:54:41;12.13;;;8.13;;
18818;SDS011;9537;45.594;9.294;2022-11-20T03:55:43;12.07;;;8.37;;
18818;SDS011;9537;45.594;9.294;2022-11-20T03:56:44;10.63;;;7.50;;
18818;SDS011;9537;45.594;9.294;2022-11-20T03:57:47;11.47;;;7.73;;
18818;SDS011;9537;45.594;9.294;2022-11-20T03:58:48;10.63;;;7.57;;
18818;SDS011;9537;45.594;9.294;2022-11-20T03:59:49;10.10;;;7.50;;
18818;SDS011;9537;45.594;9.294;2022-11-20T04:00:50;12.93;;;7.93;;
18818;SDS011;9537;45.594;9.294;2022-11-20T04:01:53;11.73;;;8.03;;
18818;SDS011;9537;45.594;9.294;2022-11-20T04:02:54;11.90;;;8.13;;
18818;SDS011;9537;45.594;9.294;2022-11-20T04:03:59;13.30;;;8.10;;
18818;SDS011;9537;45.594;9.294;2022-11-20T04:05:00;12.50;;;8.03;;
18818;SDS011;9537;45.594;9.294;2022-11-20T04:06:03;9.37;;;7.60;;
18818;SDS011;9537;45.594;9.294;2022-11-20T04:07:05;11.70;;;7.70;;
18818;SDS011;9537;45.594;9.294;2022-11-20T04:08:07;10.67;;;7.77;;
18818;SDS011;9537;45.594;9.294;2022-11-20T04:09:08;10.60;;;7.63;;
18818;SDS011;9537;45.594;9.294;2022-11-20T04:10:10;9.30;;;6.90;;
18818;SDS011;9537;45.594;9.294;2022-11-20T04:11:12;10.77;;;7.33;;
18818;SDS011;9537;45.594;9.294;2022-11-20T04:12:15;13.73;;;7.67;;
18818;SDS011;9537;45.594;9.294;2022-11-20T04:13:18;12.23;;;7.80;;
18818;SDS011;9537;45.594;9.294;2022-11-20T04:14:20;9.77;;;7.17;;
18818;SDS011;9537;45.594;9.294;2022-11-20T04:15:21;10.53;;;7.30;;
18818;SDS011;9537;45.594;9.294;2022-11-20T04:16:23;10.90;;;7.73;;
18818;SDS011;9537;45.594;9.294;2022-11-20T04:17:25;11.07;;;7.27;;
18818;SDS011;9537;45.594;9.294;2022-11-20T04:18:28;11.60;;;7.43;;
18818;SDS011;9537;45.594;9.294;2022-11-20T04:19:29;11.53;;;7.30;;
18818;SDS011;9537;45.594;9.294;2022-11-20T04:20:31;12.07;;;7.13;;
18818;SDS011;9537;45.594;9.294;2022-11-20T04:21:32;10.43;;;7.20;;
18818;SDS011;9537;45.594;9.294;2022-11-20T04:22:34;11.87;;;6.97;;
18818;SDS011;9537;45.594;9.294;2022-11-20T04:23:35;10.57;;;7.10;;
18818;SDS011;9537;45.594;9.294;2022-11-20T04:24:38;10.27;;;7.23;;
18818;SDS011;9537;45.594;9.294;2022-11-20T04:25:39;8.57;;;6.53;;
18818;SDS011;9537;45.594;9.294;2022-11-20T04:26:41;9.60;;;7.00;;
18818;SDS011;9537;45.594;9.294;2022-11-20T04:27:42;10.10;;;7.00;;
18818;SDS011;9537;45.594;9.294;2022-11-20T04:28:45;9.73;;;6.43;;
18818;SDS011;9537;45.594;9.294;2022-11-20T04:29:46;8.60;;;6.30;;
18818;SDS011;9537;45.594;9.294;2022-11-20T04:30:48;10.03;;;6.80;;
18818;SDS011;9537;45.594;9.294;2022-11-20T04:31:50;12.77;;;7.07;;
18818;SDS011;9537;45.594;9.294;2022-11-20T04:32:53;8.40;;;6.80;;
18818;SDS011;9537;45.594;9.294;2022-11-20T04:33:55;9.67;;;7.07;;
18818;SDS011;9537;45.594;9.294;2022-11-20T04:35:00;10.27;;;7.23;;
18818;SDS011;9537;45.594;9.294;2022-11-20T04:36:02;8.63;;;6.33;;
18818;SDS011;9537;45.594;9.294;2022-11-20T04:37:05;10.43;;;7.10;;
18818;SDS011;9537;45.594;9.294;2022-11-20T04:38:06;8.20;;;6.27;;
18818;SDS011;9537;45.594;9.294;2022-11-20T04:39:11;8.57;;;7.17;;
18818;SDS011;9537;45.594;9.294;2022-11-20T04:40:12;11.33;;;6.77;;
18818;SDS011;9537;45.594;9.294;2022-11-20T04:41:15;9.07;;;6.50;;
18818;SDS011;9537;45.594;9.294;2022-11-20T04:42:18;9.93;;;7.03;;
18818;SDS011;9537;45.594;9.294;2022-11-20T04:43:32;10.73;;;6.90;;
18818;SDS011;9537;45.594;9.294;2022-11-20T04:44:35;11.50;;;6.77;;
18818;SDS011;9537;45.594;9.294;2022-11-20T04:45:37;12.57;;;7.03;;
18818;SDS011;9537;45.594;9.294;2022-11-20T04:46:39;10.93;;;7.83;;
18818;SDS011;9537;45.594;9.294;2022-11-20T04:47:42;11.00;;;6.57;;
18818;SDS011;9537;45.594;9.294;2022-11-20T04:48:43;9.73;;;6.77;;
18818;SDS011;9537;45.594;9.294;2022-11-20T04:49:45;10.07;;;6.80;;
18818;SDS011;9537;45.594;9.294;2022-11-20T04:50:46;10.10;;;6.97;;
18818;SDS011;9537;45.594;9.294;2022-11-20T04:51:48;9.57;;;7.03;;
18818;SDS011;9537;45.594;9.294;2022-11-20T04:52:49;8.40;;;6.77;;
18818;SDS011;9537;45.594;9.294;2022-11-20T04:53:51;9.63;;;6.97;;
18818;SDS011;9537;45.594;9.294;2022-11-20T04:54:52;9.30;;;6.47;;
18818;SDS011;9537;45.594;9.294;2022-11-20T04:55:58;8.23;;;6.20;;
18818;SDS011;9537;45.594;9.294;2022-11-20T04:57:00;10.37;;;6.77;;
18818;SDS011;9537;45.594;9.294;2022-11-20T04:58:02;9.27;;;6.20;;
18818;SDS011;9537;45.594;9.294;2022-11-20T04:59:03;11.07;;;6.43;;
18818;SDS011;9537;45.594;9.294;2022-11-20T05:00:07;11.73;;;6.53;;
18818;SDS011;9537;45.594;9.294;2022-11-20T05:01:10;10.70;;;6.43;;
18818;SDS011;9537;45.594;9.294;2022-11-20T05:02:14;9.03;;;6.47;;
18818;SDS011;9537;45.594;9.294;2022-11-20T05:03:15;8.27;;;6.57;;
18818;SDS011;9537;45.594;9.294;2022-11-20T05:04:17;13.47;;;6.63;;
18818;SDS011;9537;45.594;9.294;2022-11-20T05:05:18;12.10;;;6.67;;
18818;SDS011;9537;45.594;9.294;2022-11-20T05:06:20;11.00;;;6.83;;
18818;SDS011;9537;45.594;9.294;2022-11-20T05:07:23;10.70;;;7.13;;
18818;SDS011;9537;45.594;9.294;2022-11-20T05:08:25;9.30;;;6.70;;
18818;SDS011;9537;45.594;9.294;2022-11-20T05:09:26;8.83;;;6.73;;
18818;SDS011;9537;45.594;9.294;2022-11-20T05:10:28;10.20;;;6.90;;
18818;SDS011;9537;45.594;9.294;2022-11-20T05:11:29;8.43;;;6.33;;
18818;SDS011;9537;45.594;9.294;2022-11-20T05:12:33;8.83;;;6.53;;
18818;SDS011;9537;45.594;9.294;2022-11-20T05:13:34;9.13;;;6.27;;
18818;SDS011;9537;45.594;9.294;2022-11-20T05:14:36;9.80;;;6.40;;
18818;SDS011;9537;45.594;9.294;2022-11-20T05:15:38;9.97;;;6.93;;
18818;SDS011;9537;45.594;9.294;2022-11-20T05:16:40;8.83;;;6.60;;
18818;SDS011;9537;45.594;9.294;2022-11-20T05:17:46;7.50;;;5.93;;
18818;SDS011;9537;45.594;9.294;2022-11-20T05:18:48;9.37;;;5.83;;
18818;SDS011;9537;45.594;9.294;2022-11-20T05:19:49;8.67;;;6.27;;
18818;SDS011;9537;45.594;9.294;2022-11-20T05:20:54;7.70;;;6.20;;
18818;SDS011;9537;45.594;9.294;2022-11-20T05:21:55;9.90;;;6.60;;
18818;SDS011;9537;45.594;9.294;2022-11-20T05:22:57;9.10;;;6.57;;
18818;SDS011;9537;45.594;9.294;2022-11-20T05:23:58;9.03;;;6.37;;
18818;SDS011;9537;45.594;9.294;2022-11-20T05:25:00;9.97;;;6.57;;
18818;SDS011;9537;45.594;9.294;2022-11-20T05:26:02;8.40;;;5.80;;
18818;SDS011;9537;45.594;9.294;2022-11-20T05:27:05;9.67;;;6.60;;
18818;SDS011;9537;45.594;9.294;2022-11-20T05:28:06;8.67;;;6.13;;
18818;SDS011;9537;45.594;9.294;2022-11-20T05:29:09;9.20;;;6.07;;
18818;SDS011;9537;45.594;9.294;2022-11-20T05:30:12;8.63;;;6.10;;
18818;SDS011;9537;45.594;9.294;2022-11-20T05:31:15;9.17;;;6.30;;
18818;SDS011;9537;45.594;9.294;2022-11-20T05:32:19;8.00;;;5.97;;
18818;SDS011;9537;45.594;9.294;2022-11-20T05:33:20;8.20;;;5.70;;
18818;SDS011;9537;45.594;9.294;2022-11-20T05:34:22;8.90;;;5.90;;
18818;SDS011;9537;45.594;9.294;2022-11-20T05:35:23;7.63;;;5.57;;
18818;SDS011;9537;45.594;9.294;2022-11-20T05:36:25;8.50;;;6.00;;
18818;SDS011;9537;45.594;9.294;2022-11-20T05:37:26;8.67;;;5.60;;
18818;SDS011;9537;45.594;9.294;2022-11-20T05:38:28;8.17;;;6.07;;
18818;SDS011;9537;45.594;9.294;2022-11-20T05:39:29;7.90;;;5.80;;
18818;SDS011;9537;45.594;9.294;2022-11-20T05:40:31;9.77;;;5.93;;
18818;SDS011;9537;45.594;9.294;2022-11-20T05:41:32;8.30;;;6.20;;
18818;SDS011;9537;45.594;9.294;2022-11-20T05:42:34;10.00;;;6.03;;
18818;SDS011;9537;45.594;9.294;2022-11-20T05:43:36;7.93;;;5.67;;
18818;SDS011;9537;45.594;9.294;2022-11-20T05:44:39;8.37;;;5.13;;
18818;SDS011;9537;45.594;9.294;2022-11-20T05:45:40;8.03;;;5.70;;
18818;SDS011;9537;45.594;9.294;2022-11-20T05:46:44;8.33;;;5.60;;
18818;SDS011;9537;45.594;9.294;2022-11-20T05:47:45;7.07;;;5.03;;
18818;SDS011;9537;45.594;9.294;2022-11-20T05:48:47;8.50;;;5.73;;
18818;SDS011;9537;45.594;9.294;2022-11-20T05:49:48;6.50;;;5.00;;
18818;SDS011;9537;45.594;9.294;2022-11-20T05:50:50;7.13;;;5.43;;
18818;SDS011;9537;45.594;9.294;2022-11-20T05:51:51;6.90;;;5.03;;
18818;SDS011;9537;45.594;9.294;2022-11-20T05:52:53;6.67;;;5.67;;
18818;SDS011;9537;45.594;9.294;2022-11-20T05:53:55;6.33;;;5.47;;
18818;SDS011;9537;45.594;9.294;2022-11-20T05:54:58;11.17;;;5.97;;
18818;SDS011;9537;45.594;9.294;2022-11-20T05:55:59;8.60;;;5.77;;
18818;SDS011;9537;45.594;9.294;2022-11-20T05:57:02;7.20;;;5.60;;
18818;SDS011;9537;45.594;9.294;2022-11-20T05:58:03;7.00;;;5.23;;
18818;SDS011;9537;45.594;9.294;2022-11-20T05:59:06;7.83;;;5.43;;
18818;SDS011;9537;45.594;9.294;2022-11-20T06:00:08;9.73;;;5.60;;
18818;SDS011;9537;45.594;9.294;2022-11-20T06:01:11;8.57;;;5.70;;
18818;SDS011;9537;45.594;9.294;2022-11-20T06:02:16;7.73;;;5.57;;
18818;SDS011;9537;45.594;9.294;2022-11-20T06:03:17;8.67;;;5.90;;
18818;SDS011;9537;45.594;9.294;2022-11-20T06:04:19;7.37;;;5.03;;
18818;SDS011;9537;45.594;9.294;2022-11-20T06:05:20;6.63;;;4.97;;
18818;SDS011;9537;45.594;9.294;2022-11-20T06:06:22;7.67;;;5.40;;
18818;SDS011;9537;45.594;9.294;2022-11-20T06:07:23;8.77;;;6.20;;
18818;SDS011;9537;45.594;9.294;2022-11-20T06:08:25;7.43;;;5.67;;
18818;SDS011;9537;45.594;9.294;2022-11-20T06:09:26;7.97;;;5.60;;
18818;SDS011;9537;45.594;9.294;2022-11-20T06:10:28;7.40;;;5.07;;
18818;SDS011;9537;45.594;9.294;2022-11-20T06:11:29;7.20;;;5.30;;
18818;SDS011;9537;45.594;9.294;2022-11-20T06:12:31;9.57;;;5.97;;
18818;SDS011;9537;45.594;9.294;2022-11-20T06:13:33;9.40;;;5.67;;
18818;SDS011;9537;45.594;9.294;2022-11-20T06:14:35;7.83;;;5.70;;
18818;SDS011;9537;45.594;9.294;2022-11-20T06:15:37;8.73;;;5.97;;
18818;SDS011;9537;45.594;9.294;2022-11-20T06:16:38;9.10;;;5.57;;
18818;SDS011;9537;45.594;9.294;2022-11-20T06:17:41;7.77;;;5.73;;
18818;SDS011;9537;45.594;9.294;2022-11-20T06:18:42;11.53;;;5.80;;
18818;SDS011;9537;45.594;9.294;2022-11-20T06:19:44;9.77;;;5.67;;
18818;SDS011;9537;45.594;9.294;2022-11-20T06:20:45;8.83;;;5.93;;